Tanais Express — V3OQ8 — position and weather

sailwx.info

Track history (hours):
 
Tides and Currents Weather Stations Pressure Air Temp Water Temp Dewpoint Dewpoint Depression Visibility Wind Speed Wind Dir Waves Ship Positions

Tanais Express

Last reported at 2015-Apr-11 05:26 UTC. Time now 2015-Jul-04 10:11 UTC.
Position N 34°49' E 119°35'.
Warning: this ship's position is months out of date.

Length 159 m; draft 5.4 m.

Type: Cargo ship. MMSI: 312655000.

Date/timePositionNaut miles runAvg speedWind from/ knotsBaromVisibWave heightAir tempDewpointWater temp
2015-Apr-11 05:26N 34°49' E 119°35'0 0.1
2015-Apr-11 04:32N 34°49' E 119°35'0 0.0
2015-Apr-11 03:20N 34°49' E 119°35'0 0.1
2015-Apr-11 02:20N 34°49' E 119°35'0 0.1
2015-Apr-11 01:26N 34°49' E 119°35'0 0.0
2015-Apr-11 00:26N 34°49' E 119°35'0 0.0
2015-Apr-10 23:32N 34°49' E 119°35'0 0.1
2015-Apr-10 22:32N 34°49' E 119°35'0 0.0
2015-Apr-10 21:32N 34°49' E 119°35'0 0.0
2015-Apr-10 20:26N 34°49' E 119°35'0 0.0
2015-Apr-10 19:26N 34°49' E 119°35'0 0.1
2015-Apr-10 18:32N 34°49' E 119°35'0 0.0
2015-Apr-10 17:16N 34°49' E 119°35'1 2.0
2015-Apr-10 16:33N 34°48' E 119°36'7 6.6
2015-Apr-10 15:33N 34°45' E 119°29'1 1.3
2015-Apr-10 14:29N 34°44' E 119°27'0 0.0
2015-Apr-10 13:29N 34°44' E 119°27'0 0.0
2015-Apr-10 12:29N 34°44' E 119°27'0 0.0
2015-Apr-10 11:29N 34°44' E 119°27'0 0.0
2015-Apr-10 10:29N 34°44' E 119°27'0 0.0
2015-Apr-10 09:23N 34°44' E 119°27'0 0.0
2015-Apr-10 08:29N 34°44' E 119°27'0 0.0
2015-Apr-10 07:23N 34°44' E 119°27'0 0.0
2015-Apr-10 06:17N 34°44' E 119°27'0 0.0
2015-Apr-10 04:17N 34°44' E 119°27'0 0.0
2015-Apr-10 03:11N 34°44' E 119°27'0 0.0
2015-Apr-10 02:29N 34°44' E 119°27'0 0.0
2015-Apr-10 01:17N 34°44' E 119°27'0 0.0
2015-Apr-10 00:29N 34°44' E 119°27'0 0.0
2015-Apr-09 23:29N 34°44' E 119°27'0 0.0
2015-Apr-09 21:23N 34°44' E 119°27'0 0.0
2015-Apr-09 20:29N 34°44' E 119°27'0 0.0
2015-Apr-09 19:29N 34°44' E 119°27'0 0.0
2015-Apr-09 16:05N 34°44' E 119°27'0 0.0
2015-Apr-09 15:23N 34°44' E 119°27'0 0.0
2015-Apr-09 13:17N 34°44' E 119°27'0 0.0
2015-Apr-09 12:23N 34°44' E 119°27'0 0.0
2015-Apr-09 11:23N 34°44' E 119°27'0 0.1
2015-Apr-09 10:11N 34°45' E 119°27'0 0.0
2015-Apr-09 09:29N 34°44' E 119°27'0 0.0
2015-Apr-09 08:29N 34°45' E 119°27'0 0.0
2015-Apr-09 07:23N 34°45' E 119°27'0 0.0
2015-Apr-09 06:29N 34°45' E 119°27'0 0.0
2015-Apr-09 05:29N 34°45' E 119°27'0 0.0
2015-Apr-09 04:29N 34°45' E 119°27'0 0.0
2015-Apr-09 03:29N 34°45' E 119°27'0 0.0
2015-Apr-09 01:29N 34°45' E 119°27'0 0.0
2015-Apr-09 00:29N 34°44' E 119°27'0 0.0
2015-Apr-08 23:29N 34°45' E 119°27'0 0.0
2015-Apr-08 22:30N 34°45' E 119°27'0 0.0
2015-Apr-08 21:23N 34°44' E 119°27'0 0.0
2015-Apr-08 20:29N 34°44' E 119°27'0 0.0
2015-Apr-08 19:23N 34°44' E 119°27'0 0.0
2015-Apr-08 18:29N 34°45' E 119°27'0 0.0
2015-Apr-08 17:29N 34°45' E 119°27'0 0.0
2015-Apr-08 16:29N 34°45' E 119°27'0 0.0
2015-Apr-08 15:29N 34°45' E 119°27'0 0.0
2015-Apr-08 14:29N 34°45' E 119°27'0 0.0
2015-Apr-08 13:29N 34°45' E 119°27'0 0.0
2015-Apr-08 12:29N 34°45' E 119°27'0 0.0
2015-Apr-08 11:29N 34°45' E 119°27'0 0.0
2015-Apr-08 10:23N 34°44' E 119°27'0 0.0
2015-Apr-08 09:23N 34°44' E 119°27'0 0.0
2015-Apr-08 08:29N 34°44' E 119°27'0 0.0
2015-Apr-08 07:23N 34°45' E 119°27'0 0.0
2015-Apr-08 06:29N 34°45' E 119°27'0 0.0
2015-Apr-08 05:29N 34°44' E 119°27'0 0.0
2015-Apr-08 04:23N 34°45' E 119°27'0 0.0
2015-Apr-08 03:23N 34°44' E 119°27'0 0.0
2015-Apr-08 02:29N 34°45' E 119°27'0 0.0
2015-Apr-08 01:32N 34°45' E 119°27'1 1.1
2015-Apr-08 00:33N 34°45' E 119°28'9 7.7
2015-Apr-07 23:21N 34°48' E 119°39'3 3.1
2015-Apr-07 22:29N 34°50' E 119°41'1 0.3
2015-Apr-07 18:09N 34°51' E 119°41'0 0.0
2015-Apr-07 04:09N 34°51' E 119°41'  
2015-Apr-04 21:32N 31°09' E 122°13'1414.0
2015-Apr-04 20:33N 31°15' E 121°58'1212.1
2015-Apr-04 19:33N 31°19' E 121°45'1010.1
2015-Apr-04 18:33N 31°23' E 121°34'4 3.7
2015-Apr-04 17:30N 31°22' E 121°30'0 0.0
2015-Apr-04 16:33N 31°22' E 121°30'0 0.0
2015-Apr-04 15:30N 31°22' E 121°30'0 0.0
2015-Apr-04 14:18N 31°22' E 121°30'0 0.0
2015-Apr-04 13:30N 31°22' E 121°30'0 0.0
2015-Apr-04 12:30N 31°22' E 121°30'0 0.0
2015-Apr-04 11:33N 31°22' E 121°30'0 0.0
2015-Apr-04 10:30N 31°22' E 121°30'0 0.0
2015-Apr-04 09:30N 31°22' E 121°30'0 0.0
2015-Apr-04 08:24N 31°22' E 121°30'0 0.0
2015-Apr-04 07:30N 31°22' E 121°30'0 0.0
2015-Apr-04 06:24N 31°22' E 121°30'0 0.0
2015-Apr-04 05:22N 31°22' E 121°30'0 0.0
2015-Apr-04 04:29N 31°22' E 121°30'0 0.0
2015-Apr-04 03:26N 31°22' E 121°30'0 0.0
2015-Apr-04 02:05N 31°22' E 121°30'0 0.0
2015-Apr-04 01:29N 31°22' E 121°30'0 0.0
2015-Apr-04 00:05N 31°22' E 121°30'0 0.0
2015-Apr-03 23:32N 31°22' E 121°30'0 0.0
2015-Apr-03 22:29N 31°22' E 121°30'0 0.0
2015-Apr-03 21:29N 31°22' E 121°30'0 0.0
2015-Apr-03 20:23N 31°22' E 121°30'0 0.0
2015-Apr-03 19:29N 31°22' E 121°30'0 0.0
2015-Apr-03 18:29N 31°22' E 121°30'0 0.0
2015-Apr-03 17:23N 31°22' E 121°30'0 0.0
2015-Apr-03 16:23N 31°22' E 121°30'0 0.0
2015-Apr-03 15:29N 31°22' E 121°30'0 0.0
2015-Apr-03 14:32N 31°22' E 121°30'0 0.0
2015-Apr-03 13:33N 31°22' E 121°30'0 0.0
2015-Apr-03 12:15N 31°22' E 121°30'0 0.0
2015-Apr-03 11:33N 31°22' E 121°30'0 0.0
2015-Apr-03 10:33N 31°22' E 121°30'0 0.0
2015-Apr-03 09:33N 31°22' E 121°30'0 0.0
2015-Apr-03 08:33N 31°22' E 121°30'0 0.0
2015-Apr-03 07:21N 31°22' E 121°30'0 0.0
2015-Apr-03 06:33N 31°22' E 121°30'1 1.3
2015-Apr-03 05:34N 31°23' E 121°30'7 6.4
2015-Apr-03 04:33N 31°22' E 121°38'8 8.5
2015-Apr-03 03:33N 31°18' E 121°46'9 8.8
2015-Apr-03 02:33N 31°15' E 121°56'1110.5
2015-Apr-03 01:33N 31°12' E 122°08'  
Track history (hours):
 
Tides and Currents Weather Stations Pressure Air Temp Water Temp Dewpoint Dewpoint Depression Visibility Wind Speed Wind Dir Waves Ship Positions

Tanais Express

Last reported at 2015-Apr-11 05:26 UTC. Time now 2015-Jul-04 10:11 UTC.
Position N 34°49' E 119°35'.
Warning: this ship's position is months out of date.

Length 159 m; draft 5.4 m.

Type: Cargo ship. MMSI: 312655000.

Date/timePositionNaut miles runAvg speedWind from/ knotsBaromVisibWave heightAir tempDewpointWater temp
2015-Apr-11 05:26N 34°49' E 119°35'0 0.1
2015-Apr-11 04:32N 34°49' E 119°35'0 0.0
2015-Apr-11 03:20N 34°49' E 119°35'0 0.1
2015-Apr-11 02:20N 34°49' E 119°35'0 0.1
2015-Apr-11 01:26N 34°49' E 119°35'0 0.0
2015-Apr-11 00:26N 34°49' E 119°35'0 0.0
2015-Apr-10 23:32N 34°49' E 119°35'0 0.1
2015-Apr-10 22:32N 34°49' E 119°35'0 0.0
2015-Apr-10 21:32N 34°49' E 119°35'0 0.0
2015-Apr-10 20:26N 34°49' E 119°35'0 0.0
2015-Apr-10 19:26N 34°49' E 119°35'0 0.1
2015-Apr-10 18:32N 34°49' E 119°35'0 0.0
2015-Apr-10 17:16N 34°49' E 119°35'1 2.0
2015-Apr-10 16:33N 34°48' E 119°36'7 6.6
2015-Apr-10 15:33N 34°45' E 119°29'1 1.3
2015-Apr-10 14:29N 34°44' E 119°27'0 0.0
2015-Apr-10 13:29N 34°44' E 119°27'0 0.0
2015-Apr-10 12:29N 34°44' E 119°27'0 0.0
2015-Apr-10 11:29N 34°44' E 119°27'0 0.0
2015-Apr-10 10:29N 34°44' E 119°27'0 0.0
2015-Apr-10 09:23N 34°44' E 119°27'0 0.0
2015-Apr-10 08:29N 34°44' E 119°27'0 0.0
2015-Apr-10 07:23N 34°44' E 119°27'0 0.0
2015-Apr-10 06:17N 34°44' E 119°27'0 0.0
2015-Apr-10 04:17N 34°44' E 119°27'0 0.0
2015-Apr-10 03:11N 34°44' E 119°27'0 0.0
2015-Apr-10 02:29N 34°44' E 119°27'0 0.0
2015-Apr-10 01:17N 34°44' E 119°27'0 0.0
2015-Apr-10 00:29N 34°44' E 119°27'0 0.0
2015-Apr-09 23:29N 34°44' E 119°27'0 0.0
2015-Apr-09 21:23N 34°44' E 119°27'0 0.0
2015-Apr-09 20:29N 34°44' E 119°27'0 0.0
2015-Apr-09 19:29N 34°44' E 119°27'0 0.0
2015-Apr-09 16:05N 34°44' E 119°27'0 0.0
2015-Apr-09 15:23N 34°44' E 119°27'0 0.0
2015-Apr-09 13:17N 34°44' E 119°27'0 0.0
2015-Apr-09 12:23N 34°44' E 119°27'0 0.0
2015-Apr-09 11:23N 34°44' E 119°27'0 0.1
2015-Apr-09 10:11N 34°45' E 119°27'0 0.0
2015-Apr-09 09:29N 34°44' E 119°27'0 0.0
2015-Apr-09 08:29N 34°45' E 119°27'0 0.0
2015-Apr-09 07:23N 34°45' E 119°27'0 0.0
2015-Apr-09 06:29N 34°45' E 119°27'0 0.0
2015-Apr-09 05:29N 34°45' E 119°27'0 0.0
2015-Apr-09 04:29N 34°45' E 119°27'0 0.0
2015-Apr-09 03:29N 34°45' E 119°27'0 0.0
2015-Apr-09 01:29N 34°45' E 119°27'0 0.0
2015-Apr-09 00:29N 34°44' E 119°27'0 0.0
2015-Apr-08 23:29N 34°45' E 119°27'0 0.0
2015-Apr-08 22:30N 34°45' E 119°27'0 0.0
2015-Apr-08 21:23N 34°44' E 119°27'0 0.0
2015-Apr-08 20:29N 34°44' E 119°27'0 0.0
2015-Apr-08 19:23N 34°44' E 119°27'0 0.0
2015-Apr-08 18:29N 34°45' E 119°27'0 0.0
2015-Apr-08 17:29N 34°45' E 119°27'0 0.0
2015-Apr-08 16:29N 34°45' E 119°27'0 0.0
2015-Apr-08 15:29N 34°45' E 119°27'0 0.0
2015-Apr-08 14:29N 34°45' E 119°27'0 0.0
2015-Apr-08 13:29N 34°45' E 119°27'0 0.0
2015-Apr-08 12:29N 34°45' E 119°27'0 0.0
2015-Apr-08 11:29N 34°45' E 119°27'0 0.0
2015-Apr-08 10:23N 34°44' E 119°27'0 0.0
2015-Apr-08 09:23N 34°44' E 119°27'0 0.0
2015-Apr-08 08:29N 34°44' E 119°27'0 0.0
2015-Apr-08 07:23N 34°45' E 119°27'0 0.0
2015-Apr-08 06:29N 34°45' E 119°27'0 0.0
2015-Apr-08 05:29N 34°44' E 119°27'0 0.0
2015-Apr-08 04:23N 34°45' E 119°27'0 0.0
2015-Apr-08 03:23N 34°44' E 119°27'0 0.0
2015-Apr-08 02:29N 34°45' E 119°27'0 0.0
2015-Apr-08 01:32N 34°45' E 119°27'1 1.1
2015-Apr-08 00:33N 34°45' E 119°28'9 7.7
2015-Apr-07 23:21N 34°48' E 119°39'3 3.1
2015-Apr-07 22:29N 34°50' E 119°41'1 0.3
2015-Apr-07 18:09N 34°51' E 119°41'0 0.0
2015-Apr-07 04:09N 34°51' E 119°41'  
2015-Apr-04 21:32N 31°09' E 122°13'1414.0
2015-Apr-04 20:33N 31°15' E 121°58'1212.1
2015-Apr-04 19:33N 31°19' E 121°45'1010.1
2015-Apr-04 18:33N 31°23' E 121°34'4 3.7
2015-Apr-04 17:30N 31°22' E 121°30'0 0.0
2015-Apr-04 16:33N 31°22' E 121°30'0 0.0
2015-Apr-04 15:30N 31°22' E 121°30'0 0.0
2015-Apr-04 14:18N 31°22' E 121°30'0 0.0
2015-Apr-04 13:30N 31°22' E 121°30'0 0.0
2015-Apr-04 12:30N 31°22' E 121°30'0 0.0
2015-Apr-04 11:33N 31°22' E 121°30'0 0.0
2015-Apr-04 10:30N 31°22' E 121°30'0 0.0
2015-Apr-04 09:30N 31°22' E 121°30'0 0.0
2015-Apr-04 08:24N 31°22' E 121°30'0 0.0
2015-Apr-04 07:30N 31°22' E 121°30'0 0.0
2015-Apr-04 06:24N 31°22' E 121°30'0 0.0
2015-Apr-04 05:22N 31°22' E 121°30'0 0.0
2015-Apr-04 04:29N 31°22' E 121°30'0 0.0
2015-Apr-04 03:26N 31°22' E 121°30'0 0.0
2015-Apr-04 02:05N 31°22' E 121°30'0 0.0
2015-Apr-04 01:29N 31°22' E 121°30'0 0.0
2015-Apr-04 00:05N 31°22' E 121°30'0 0.0
2015-Apr-03 23:32N 31°22' E 121°30'0 0.0
2015-Apr-03 22:29N 31°22' E 121°30'0 0.0
2015-Apr-03 21:29N 31°22' E 121°30'0 0.0
2015-Apr-03 20:23N 31°22' E 121°30'0 0.0
2015-Apr-03 19:29N 31°22' E 121°30'0 0.0
2015-Apr-03 18:29N 31°22' E 121°30'0 0.0
2015-Apr-03 17:23N 31°22' E 121°30'0 0.0
2015-Apr-03 16:23N 31°22' E 121°30'0 0.0
2015-Apr-03 15:29N 31°22' E 121°30'0 0.0
2015-Apr-03 14:32N 31°22' E 121°30'0 0.0
2015-Apr-03 13:33N 31°22' E 121°30'0 0.0
2015-Apr-03 12:15N 31°22' E 121°30'0 0.0
2015-Apr-03 11:33N 31°22' E 121°30'0 0.0
2015-Apr-03 10:33N 31°22' E 121°30'0 0.0
2015-Apr-03 09:33N 31°22' E 121°30'0 0.0
2015-Apr-03 08:33N 31°22' E 121°30'0 0.0
2015-Apr-03 07:21N 31°22' E 121°30'0 0.0
2015-Apr-03 06:33N 31°22' E 121°30'1 1.3
2015-Apr-03 05:34N 31°23' E 121°30'7 6.4
2015-Apr-03 04:33N 31°22' E 121°38'8 8.5
2015-Apr-03 03:33N 31°18' E 121°46'9 8.8
2015-Apr-03 02:33N 31°15' E 121°56'1110.5
2015-Apr-03 01:33N 31°12' E 122°08'  

Dump ship's entire track history